Terminal Aerodrome Forecast
Issued by NWS Cleveland, OH

Home | Current Version | Previous Version | Text Only | Print | Product List | Glossary Off
Versions: 1 2 3 4 5 6 7 8 9 10 11 12 13 14 15 16 17 18 19 20 21

000
FTUS41 KCLE 182331
TAFCLE
TAF
KCLE 182331Z 1900/2006 03011KT P6SM OVC040
     FM190200 03010KT 6SM -RA OVC035
      TEMPO 1902/1905 5SM -RA BKN025
     FM190500 01010G19KT 4SM -RASN OVC015
     FM190800 36014G24KT 1 1/2SM -SN OVC006
     FM191500 34020G32KT 5SM -SHSN OVC012=

USA.gov is the U.S. government's official web portal to all federal, state and local government web resources and services.